Eastham, Massachusetts
Current Conditions -  °F | °C
As of 3:52 AM on Saturday 01 Nov 2014 (Local Time) from KCQX Reporting Station
Few Clouds Few Clouds  
Wind Chill: 52°   Ceiling: Unl
Heat Index: 52°   Visibility: 10mi
Dew Point: 46°   Wind: 10mph
Humidity: 80%   Direction: 30°NNE
Pressure: 29.82"   Gusts: 25mph
Location:  41.83°N, 69.97°W
Report Text: KCQX 010752Z AUTO 03009G22KT 10SM FEW016 11/08 A2982 RMK AO2 SLP098 T01110078
Loading
Personal Weather Stations






























Interactive Weather Map
Tropical Storm Tracking
New forecast layout! Learn more

10-Day Weather Forecast

Advertisements
Track Severe Weather on mobile